createdAt,value
2022-12-13T00:00:56.768Z,99.99
2022-12-13T00:03:23.169Z,99.84
2022-12-13T00:05:49.594Z,99.76
2022-12-13T00:08:16.036Z,99.96
2022-12-13T00:10:42.461Z,100.00
2022-12-13T00:13:09.000Z,99.73
2022-12-13T00:15:35.495Z,99.93
2022-12-13T00:18:01.855Z,99.75
2022-12-13T00:20:28.411Z,99.94
2022-12-13T00:22:54.782Z,99.91
2022-12-13T00:25:21.489Z,99.89
2022-12-13T00:27:47.931Z,99.87
2022-12-13T00:30:14.371Z,99.81
2022-12-13T00:32:40.780Z,99.40
2022-12-13T00:35:07.660Z,99.62
2022-12-13T00:37:34.034Z,99.88
2022-12-13T00:40:00.423Z,99.81
2022-12-13T00:42:27.978Z,99.57
2022-12-13T00:44:54.470Z,99.61
2022-12-13T00:47:22.179Z,99.72
2022-12-13T00:49:48.636Z,99.47
2022-12-13T00:52:15.018Z,99.22
2022-12-13T00:54:41.745Z,99.38
2022-12-13T00:57:08.292Z,99.38
2022-12-13T00:59:34.669Z,99.51
2022-12-13T01:02:01.033Z,99.23
2022-12-13T01:04:27.719Z,99.61
2022-12-13T01:06:55.093Z,99.43
2022-12-13T01:09:29.628Z,99.74
2022-12-13T01:11:57.901Z,99.24
2022-12-13T01:14:24.530Z,99.52
2022-12-13T01:16:50.948Z,99.33
2022-12-13T01:19:17.402Z,99.40
2022-12-13T01:21:43.775Z,99.49
2022-12-13T01:24:10.389Z,99.49
2022-12-13T01:26:36.887Z,99.72
2022-12-13T01:29:05.515Z,99.51
2022-12-13T01:31:32.136Z,99.57
2022-12-13T01:33:58.645Z,99.40
2022-12-13T01:36:27.526Z,99.43
2022-12-13T01:38:58.019Z,99.00
2022-12-13T01:41:27.216Z,98.99
2022-12-13T01:43:57.532Z,99.58
2022-12-13T01:46:24.097Z,99.07
2022-12-13T01:48:59.234Z,98.78
2022-12-13T01:51:31.357Z,98.98
2022-12-13T01:54:00.604Z,99.07
2022-12-13T01:56:50.010Z,99.24
2022-12-13T01:59:19.118Z,99.00
2022-12-13T02:01:49.485Z,99.07
2022-12-13T02:04:21.109Z,98.69
2022-12-13T02:06:47.692Z,98.60
2022-12-13T02:09:14.957Z,98.82
2022-12-13T02:11:43.540Z,98.50
2022-12-13T02:14:10.415Z,98.95
2022-12-13T02:16:48.966Z,98.73
2022-12-13T02:19:58.623Z,98.90
2022-12-13T02:22:48.729Z,98.93
2022-12-13T02:25:56.688Z,99.05
2022-12-13T02:28:38.122Z,98.78
2022-12-13T02:31:12.578Z,98.82
2022-12-13T02:33:59.456Z,98.71
2022-12-13T02:36:36.202Z,98.75
2022-12-13T02:39:30.234Z,98.64
2022-12-13T02:42:04.046Z,98.37
2022-12-13T02:44:34.509Z,98.66
2022-12-13T02:47:23.753Z,98.39
2022-12-13T02:49:54.032Z,98.59
2022-12-13T02:52:24.927Z,98.37
2022-12-13T02:54:54.352Z,98.53
2022-12-13T02:57:49.950Z,98.60
2022-12-13T03:00:20.453Z,98.62
2022-12-13T03:03:40.990Z,98.64
2022-12-13T03:06:33.514Z,98.58
2022-12-13T03:09:08.498Z,98.62
2022-12-13T03:12:01.655Z,98.48
2022-12-13T03:14:31.548Z,98.74
2022-12-13T03:17:02.478Z,98.88
2022-12-13T03:19:29.221Z,98.53
2022-12-13T03:21:55.591Z,98.52
2022-12-13T03:24:22.034Z,98.60
2022-12-13T03:26:49.943Z,98.41
2022-12-13T03:29:24.118Z,98.96
2022-12-13T03:31:52.689Z,98.54
2022-12-13T03:34:22.911Z,98.51
2022-12-13T03:36:52.153Z,98.53
2022-12-13T03:39:19.689Z,98.35
2022-12-13T03:41:46.338Z,98.39
2022-12-13T03:44:12.827Z,98.38
2022-12-13T03:46:39.268Z,98.71
2022-12-13T03:49:05.789Z,98.64
2022-12-13T03:51:32.312Z,98.44
2022-12-13T03:53:58.699Z,98.24
2022-12-13T03:56:26.152Z,98.60
2022-12-13T03:58:52.559Z,98.44
2022-12-13T04:01:19.056Z,98.68
2022-12-13T04:03:46.790Z,98.78
2022-12-13T04:06:22.000Z,98.74
2022-12-13T04:08:51.435Z,98.33
2022-12-13T04:11:42.759Z,98.48
2022-12-13T04:14:10.984Z,98.74
2022-12-13T04:16:37.618Z,98.38
2022-12-13T04:19:04.095Z,98.39
2022-12-13T04:21:30.494Z,98.27
2022-12-13T04:23:56.895Z,98.37
2022-12-13T04:26:27.888Z,97.82
2022-12-13T04:28:54.888Z,98.31
2022-12-13T04:31:22.127Z,98.25
2022-12-13T04:33:48.738Z,98.32
2022-12-13T04:36:30.855Z,97.97
2022-12-13T04:39:00.579Z,98.33
2022-12-13T04:41:34.512Z,98.23
2022-12-13T04:44:01.923Z,98.06
2022-12-13T04:46:28.289Z,98.47
2022-12-13T04:48:54.853Z,98.26
2022-12-13T04:51:21.346Z,98.16
2022-12-13T04:53:47.764Z,98.15
2022-12-13T04:56:14.236Z,98.32
2022-12-13T04:58:40.689Z,97.79
2022-12-13T05:01:11.345Z,98.08
2022-12-13T05:03:39.251Z,98.35
2022-12-13T05:06:26.567Z,98.42
2022-12-13T05:08:54.504Z,98.15
2022-12-13T05:11:23.050Z,98.14
2022-12-13T05:13:50.064Z,98.04
2022-12-13T05:16:16.523Z,97.57
2022-12-13T05:18:43.060Z,97.61
2022-12-13T05:21:11.537Z,97.84
2022-12-13T05:23:38.999Z,97.87
2022-12-13T05:26:05.760Z,98.39
2022-12-13T05:28:32.690Z,97.73
2022-12-13T05:31:23.300Z,97.99
2022-12-13T05:33:51.361Z,97.52
2022-12-13T05:36:18.039Z,97.85
2022-12-13T05:38:44.824Z,98.02
2022-12-13T05:41:17.760Z,97.92
2022-12-13T05:43:44.235Z,98.04
2022-12-13T05:46:14.233Z,97.67
2022-12-13T05:48:41.018Z,97.83
2022-12-13T05:51:11.199Z,97.90
2022-12-13T05:53:40.066Z,97.49
2022-12-13T05:56:07.106Z,97.92
2022-12-13T05:58:35.673Z,97.55
2022-12-13T06:01:08.773Z,98.09
2022-12-13T06:03:35.813Z,98.00
2022-12-13T06:06:03.686Z,97.74
2022-12-13T06:08:31.176Z,97.90
2022-12-13T06:11:10.873Z,97.95
2022-12-13T06:13:42.938Z,97.39
2022-12-13T06:16:22.785Z,97.54
2022-12-13T06:18:50.533Z,98.02
2022-12-13T06:21:17.788Z,97.77
2022-12-13T06:23:44.335Z,97.83
2022-12-13T06:26:10.727Z,97.43
2022-12-13T06:28:37.109Z,97.69
2022-12-13T06:31:04.936Z,97.51
2022-12-13T06:33:35.460Z,97.32
2022-12-13T06:36:03.061Z,97.30
2022-12-13T06:38:31.863Z,96.87
2022-12-13T06:41:13.108Z,97.02
2022-12-13T06:43:46.327Z,97.06
2022-12-13T06:46:13.617Z,97.14
2022-12-13T06:48:40.568Z,97.25
2022-12-13T06:51:08.247Z,96.92
2022-12-13T06:53:37.256Z,96.76
2022-12-13T06:56:08.615Z,97.11
2022-12-13T06:58:35.713Z,97.01
2022-12-13T07:01:04.752Z,97.11
2022-12-13T07:03:32.190Z,96.99
2022-12-13T07:05:59.915Z,96.99
2022-12-13T07:08:26.938Z,97.34
2022-12-13T07:10:55.079Z,96.99
2022-12-13T07:13:22.291Z,97.25
2022-12-13T07:15:49.570Z,97.20
2022-12-13T07:18:17.925Z,97.48
2022-12-13T07:20:44.956Z,97.60
2022-12-13T07:23:12.098Z,96.98
2022-12-13T07:25:38.481Z,97.33
2022-12-13T07:28:08.132Z,97.34
2022-12-13T07:30:41.352Z,97.72
2022-12-13T07:33:08.690Z,97.18
2022-12-13T07:35:37.095Z,97.53
2022-12-13T07:38:09.590Z,97.38
2022-12-13T07:40:38.179Z,97.86
2022-12-13T07:43:05.148Z,97.26
2022-12-13T07:45:31.933Z,97.42
2022-12-13T07:47:59.207Z,97.70
2022-12-13T07:50:25.955Z,97.92
2022-12-13T07:52:53.315Z,97.82
2022-12-13T07:55:23.345Z,97.96
2022-12-13T07:58:10.588Z,98.42
2022-12-13T08:00:38.597Z,98.38
2022-12-13T08:03:06.179Z,98.41
2022-12-13T08:05:38.711Z,98.58
2022-12-13T08:08:08.128Z,98.53
2022-12-13T08:10:34.590Z,98.73
2022-12-13T08:13:04.501Z,98.97
2022-12-13T08:15:31.136Z,99.24
2022-12-13T08:18:00.753Z,99.57
2022-12-13T08:20:27.267Z,99.38
2022-12-13T08:23:01.977Z,99.34
2022-12-13T08:25:30.404Z,99.87
2022-12-13T08:28:01.902Z,100.00
2022-12-13T08:30:29.296Z,100.00
2022-12-13T08:32:55.868Z,100.00
2022-12-13T08:35:22.374Z,100.00
2022-12-13T08:37:48.763Z,100.00
2022-12-13T08:40:15.121Z,100.00
2022-12-13T08:42:41.596Z,100.00
2022-12-13T08:45:08.647Z,100.00
2022-12-13T08:47:41.313Z,100.00
2022-12-13T08:50:08.426Z,100.00
2022-12-13T08:52:39.148Z,100.00
2022-12-13T08:55:08.435Z,100.00
2022-12-13T08:57:36.813Z,100.00
2022-12-13T09:00:05.516Z,100.00
2022-12-13T09:02:31.978Z,100.00
2022-12-13T09:05:05.931Z,100.00
2022-12-13T09:07:32.297Z,100.00
2022-12-13T09:09:58.829Z,100.00
2022-12-13T09:12:33.746Z,100.00
2022-12-13T09:15:21.931Z,100.00
2022-12-13T09:17:52.420Z,100.00
2022-12-13T09:20:29.049Z,100.00
2022-12-13T09:23:01.620Z,100.00
2022-12-13T09:25:37.299Z,100.00
2022-12-13T09:28:06.781Z,100.00
2022-12-13T09:30:33.218Z,100.00
2022-12-13T09:33:00.237Z,100.00
2022-12-13T09:35:46.938Z,100.00
2022-12-13T09:38:13.407Z,100.00
2022-12-13T09:40:43.236Z,100.00
2022-12-13T09:43:22.655Z,99.94
2022-12-13T09:45:51.371Z,98.98
2022-12-13T09:48:22.407Z,99.47
2022-12-13T09:50:58.027Z,98.49
2022-12-13T09:53:37.832Z,98.43
2022-12-13T09:56:10.768Z,98.05
2022-12-13T09:58:38.007Z,98.34
2022-12-13T10:01:05.454Z,97.74
2022-12-13T10:03:31.958Z,97.69
2022-12-13T10:05:58.901Z,97.30
2022-12-13T10:08:35.220Z,96.62
2022-12-13T10:11:01.628Z,96.17
2022-12-13T10:13:42.587Z,95.92
2022-12-13T10:16:26.704Z,94.84
2022-12-13T10:19:29.340Z,95.55
2022-12-13T10:22:01.543Z,95.53
2022-12-13T10:24:46.789Z,95.46
2022-12-13T10:27:29.915Z,93.60
2022-12-13T10:29:57.507Z,93.19
2022-12-13T10:32:24.050Z,92.57
2022-12-13T10:34:50.623Z,93.02
2022-12-13T10:37:23.003Z,93.39
2022-12-13T10:39:49.996Z,93.36
2022-12-13T10:42:22.757Z,92.90
2022-12-13T10:45:13.942Z,93.46
2022-12-13T10:47:43.706Z,93.19
2022-12-13T10:50:24.461Z,92.11
2022-12-13T10:52:51.523Z,91.28
2022-12-13T10:55:38.167Z,89.45
2022-12-13T10:58:18.806Z,89.47
2022-12-13T11:00:47.694Z,89.84
2022-12-13T11:03:30.140Z,88.74
2022-12-13T11:06:05.287Z,87.45
2022-12-13T11:08:31.652Z,86.35
2022-12-13T11:11:00.439Z,86.12
2022-12-13T11:13:38.323Z,86.51
2022-12-13T11:16:30.654Z,83.23
2022-12-13T11:19:00.767Z,86.08
2022-12-13T11:21:34.072Z,87.01
2022-12-13T11:24:07.899Z,85.33
2022-12-13T11:26:38.137Z,85.90
2022-12-13T11:29:25.767Z,85.41
2022-12-13T11:31:52.142Z,81.49
2022-12-13T11:34:42.692Z,80.07
2022-12-13T11:37:26.311Z,79.09
2022-12-13T11:40:01.279Z,79.75
2022-12-13T11:42:36.489Z,80.29
2022-12-13T11:45:23.524Z,87.29
2022-12-13T11:48:13.033Z,77.86
2022-12-13T11:50:43.031Z,78.08
2022-12-13T11:53:28.532Z,74.28
2022-12-13T11:55:58.859Z,76.57
2022-12-13T11:59:01.955Z,76.01
2022-12-13T12:01:29.512Z,73.61
2022-12-13T12:04:34.543Z,70.79
2022-12-13T12:07:32.367Z,70.65
2022-12-13T12:10:22.639Z,70.80
2022-12-13T12:12:56.025Z,71.00
2022-12-13T12:15:26.551Z,69.57
2022-12-13T12:17:56.255Z,68.38
2022-12-13T12:20:50.005Z,70.61
2022-12-13T12:23:22.478Z,69.59
2022-12-13T12:26:01.150Z,65.82
2022-12-13T12:29:01.331Z,66.69
2022-12-13T12:31:50.987Z,64.89
2022-12-13T12:34:35.896Z,63.27
2022-12-13T12:37:17.950Z,59.64
2022-12-13T12:39:54.523Z,62.04
2022-12-13T12:42:26.814Z,62.20
2022-12-13T12:48:58.451Z,58.04
2022-12-13T12:51:47.147Z,57.89
2022-12-13T12:54:16.320Z,55.71
2022-12-13T12:56:51.285Z,56.03
2022-12-13T12:59:36.513Z,54.07
2022-12-13T13:02:22.094Z,54.25
2022-12-13T13:04:53.609Z,53.17
2022-12-13T13:07:39.786Z,52.30
2022-12-13T13:10:16.784Z,52.41
2022-12-13T13:13:01.825Z,51.02
2022-12-13T13:15:39.121Z,53.39
2022-12-13T13:18:44.739Z,52.62
2022-12-13T13:21:23.407Z,52.21
2022-12-13T13:24:08.137Z,54.07
2022-12-13T13:26:39.740Z,52.59
2022-12-13T13:29:27.801Z,53.39
2022-12-13T13:32:28.708Z,53.76
2022-12-13T13:35:32.197Z,55.78
2022-12-13T13:38:28.435Z,54.29
2022-12-13T13:40:54.832Z,55.00
2022-12-13T13:43:32.432Z,55.37
2022-12-13T13:46:02.651Z,55.19
2022-12-13T13:49:03.532Z,55.70
2022-12-13T13:52:08.715Z,55.50
2022-12-13T13:55:01.191Z,56.75
2022-12-13T13:58:14.109Z,58.59
2022-12-13T14:01:26.019Z,59.86
2022-12-13T14:04:22.392Z,59.96
2022-12-13T14:07:01.410Z,61.03
2022-12-13T14:10:05.619Z,60.96
2022-12-13T14:13:09.687Z,59.30
2022-12-13T14:15:55.001Z,60.20
2022-12-13T14:18:53.459Z,60.34
2022-12-13T14:21:32.208Z,61.21
2022-12-13T14:24:14.033Z,63.03
2022-12-13T14:27:07.070Z,63.91
2022-12-13T14:29:40.025Z,63.27
2022-12-13T14:32:27.456Z,63.85
2022-12-13T14:34:55.808Z,66.32
2022-12-13T14:37:28.482Z,68.82
2022-12-13T14:39:54.916Z,68.38
2022-12-13T14:42:35.631Z,66.73
2022-12-13T14:45:26.259Z,68.69
2022-12-13T14:47:54.325Z,68.28
2022-12-13T14:50:21.361Z,67.96
2022-12-13T14:52:49.733Z,69.54
2022-12-13T14:55:24.393Z,70.49
2022-12-13T14:57:55.975Z,71.58
2022-12-13T15:00:35.284Z,72.22
2022-12-13T15:03:04.201Z,72.28
2022-12-13T15:05:44.337Z,73.00
2022-12-13T15:08:17.171Z,72.83
2022-12-13T15:10:48.271Z,74.37
2022-12-13T15:13:29.027Z,74.24
2022-12-13T15:16:00.259Z,75.27
2022-12-13T15:18:33.108Z,74.13
2022-12-13T15:21:22.883Z,75.52
2022-12-13T15:23:59.913Z,75.12
2022-12-13T15:26:30.147Z,76.40
2022-12-13T15:29:00.002Z,77.58
2022-12-13T15:31:27.646Z,78.83
2022-12-13T15:33:54.543Z,79.10
2022-12-13T15:36:29.050Z,80.22
2022-12-13T15:38:55.337Z,80.76
2022-12-13T15:41:28.581Z,81.17
2022-12-13T15:43:59.790Z,81.75
2022-12-13T15:46:32.463Z,82.28
2022-12-13T15:49:02.916Z,82.18
2022-12-13T15:51:30.736Z,82.22
2022-12-13T15:54:05.851Z,83.00
2022-12-13T15:56:35.691Z,83.27
2022-12-13T15:59:04.300Z,84.18
2022-12-13T16:01:36.325Z,83.52
2022-12-13T16:04:05.026Z,84.63
2022-12-13T16:06:32.950Z,84.51
2022-12-13T16:09:02.548Z,85.08
2022-12-13T16:11:41.725Z,84.99
2022-12-13T16:14:35.220Z,85.64
2022-12-13T16:17:16.764Z,84.77
2022-12-13T16:19:43.650Z,84.38
2022-12-13T16:22:10.105Z,84.34
2022-12-13T16:24:38.167Z,84.13
2022-12-13T16:27:08.468Z,84.93
2022-12-13T16:29:35.702Z,84.69
2022-12-13T16:32:08.294Z,85.41
2022-12-13T16:34:35.780Z,85.26
2022-12-13T16:37:02.315Z,86.06
2022-12-13T16:39:35.526Z,86.04
2022-12-13T16:42:01.907Z,85.86
2022-12-13T16:44:37.366Z,86.33
2022-12-13T16:47:14.998Z,86.25
2022-12-13T16:49:47.052Z,87.02
2022-12-13T16:52:13.403Z,86.94
2022-12-13T16:54:40.209Z,85.68
2022-12-13T16:57:06.605Z,87.08
2022-12-13T16:59:32.968Z,86.69
2022-12-13T17:01:59.784Z,86.49
2022-12-13T17:04:29.293Z,86.26
2022-12-13T17:06:55.768Z,86.67
2022-12-13T17:09:23.022Z,86.97
2022-12-13T17:11:49.439Z,86.92
2022-12-13T17:14:15.842Z,86.48
2022-12-13T17:16:42.280Z,86.19
2022-12-13T17:19:11.276Z,86.48
2022-12-13T17:21:37.676Z,86.10
2022-12-13T17:24:04.332Z,85.73
2022-12-13T17:26:32.691Z,86.39
2022-12-13T17:28:59.083Z,86.14
2022-12-13T17:31:28.088Z,86.40
2022-12-13T17:33:59.853Z,85.81
2022-12-13T17:36:26.824Z,86.03
2022-12-13T17:38:53.227Z,85.98
2022-12-13T17:41:19.792Z,85.86
2022-12-13T17:43:46.169Z,86.17
2022-12-13T17:46:17.693Z,85.72
2022-12-13T17:48:45.585Z,86.22
2022-12-13T17:51:13.924Z,86.28
2022-12-13T17:53:42.603Z,86.44
2022-12-13T17:56:12.082Z,86.05
2022-12-13T17:58:39.028Z,86.25
2022-12-13T18:01:20.921Z,85.81
2022-12-13T18:03:48.706Z,85.68
2022-12-13T18:06:15.379Z,85.75
2022-12-13T18:08:44.698Z,85.50
2022-12-13T18:13:59.143Z,85.79
2022-12-13T18:16:33.974Z,85.59
2022-12-13T18:19:04.957Z,85.43
2022-12-13T18:21:31.375Z,87.00
2022-12-13T18:23:59.349Z,87.37
2022-12-13T18:26:25.755Z,87.14
2022-12-13T18:28:52.454Z,87.41
2022-12-13T18:31:22.083Z,87.19
2022-12-13T18:33:49.615Z,87.80
2022-12-13T18:36:17.092Z,87.93
2022-12-13T18:38:43.810Z,88.66
2022-12-13T18:41:14.618Z,88.44
2022-12-13T18:43:42.690Z,88.71
2022-12-13T18:46:10.638Z,88.61
2022-12-13T18:48:37.087Z,88.81
2022-12-13T18:51:05.717Z,88.85
2022-12-13T18:53:33.539Z,88.96
2022-12-13T18:56:19.706Z,89.17
2022-12-13T18:58:48.076Z,89.74
2022-12-13T19:01:15.837Z,90.03
2022-12-13T19:03:44.599Z,90.56
2022-12-13T19:06:15.699Z,90.45
2022-12-13T19:08:42.099Z,90.58
2022-12-13T19:11:08.519Z,90.83
2022-12-13T19:13:34.917Z,91.01
2022-12-13T19:16:08.204Z,90.94
2022-12-13T19:18:35.227Z,91.14
2022-12-13T19:21:01.814Z,91.63
2022-12-13T19:23:29.099Z,91.45
2022-12-13T19:25:55.783Z,91.49
2022-12-13T19:28:22.279Z,91.51
2022-12-13T19:30:48.692Z,91.49
2022-12-13T19:33:15.285Z,91.36
2022-12-13T19:35:43.051Z,91.61
2022-12-13T19:38:09.961Z,91.83
2022-12-13T19:40:39.913Z,91.67
2022-12-13T19:43:06.936Z,91.77
2022-12-13T19:45:33.712Z,91.67
2022-12-13T19:48:00.159Z,91.62
2022-12-13T19:50:26.710Z,91.92
2022-12-13T19:52:54.141Z,92.21
2022-12-13T19:55:20.811Z,92.09
2022-12-13T19:57:47.297Z,92.25
2022-12-13T20:00:14.271Z,92.41
2022-12-13T20:02:42.142Z,92.69
2022-12-13T20:05:09.324Z,92.85
2022-12-13T20:07:35.768Z,92.85
2022-12-13T20:10:02.404Z,93.00
2022-12-13T20:12:29.408Z,92.59
2022-12-13T20:14:56.196Z,92.66
2022-12-13T20:17:22.592Z,92.92
2022-12-13T20:19:49.002Z,92.51
2022-12-13T20:22:15.665Z,92.69
2022-12-13T20:24:42.066Z,93.08
2022-12-13T20:27:08.772Z,92.58
2022-12-13T20:29:35.432Z,92.64
2022-12-13T20:32:02.437Z,92.83
2022-12-13T20:34:29.063Z,92.47
2022-12-13T20:36:55.475Z,92.53
2022-12-13T20:39:22.016Z,92.71
2022-12-13T20:41:48.723Z,91.65
2022-12-13T20:44:15.779Z,91.13
2022-12-13T20:46:42.691Z,90.89
2022-12-13T20:49:09.688Z,90.87
2022-12-13T20:51:37.781Z,90.47
2022-12-13T20:54:04.689Z,89.60
2022-12-13T20:56:34.955Z,89.45
2022-12-13T20:59:07.393Z,88.43
2022-12-13T21:01:38.245Z,88.54
2022-12-13T21:04:06.682Z,88.08
2022-12-13T21:06:36.049Z,88.67
2022-12-13T21:09:03.623Z,88.50
2022-12-13T21:11:41.893Z,89.15
2022-12-13T21:14:22.973Z,89.78
2022-12-13T21:16:58.498Z,89.35
2022-12-13T21:19:27.405Z,88.99
2022-12-13T21:21:55.168Z,88.98
2022-12-13T21:24:23.273Z,88.25
2022-12-13T21:26:51.089Z,87.34
2022-12-13T21:29:18.182Z,87.45
2022-12-13T21:31:48.694Z,87.79
2022-12-13T21:34:16.473Z,87.21
2022-12-13T21:36:45.256Z,87.29
2022-12-13T21:39:14.706Z,86.88
2022-12-13T21:41:43.062Z,86.37
2022-12-13T21:44:14.801Z,86.68
2022-12-13T21:49:28.898Z,86.34
2022-12-13T21:51:55.768Z,86.07
2022-12-13T21:54:22.639Z,86.01
2022-12-13T21:57:07.570Z,85.84
2022-12-13T21:59:34.146Z,84.27
2022-12-13T22:02:20.244Z,84.73
2022-12-13T22:04:49.295Z,84.88
2022-12-13T22:07:19.945Z,84.05
2022-12-13T22:09:47.729Z,84.03
2022-12-13T22:12:53.643Z,83.59
2022-12-13T22:15:20.050Z,82.79
2022-12-13T22:17:46.724Z,82.32
2022-12-13T22:20:15.222Z,81.84
2022-12-13T22:22:43.948Z,82.54
2022-12-13T22:25:10.581Z,83.10
2022-12-13T22:27:37.223Z,83.61
2022-12-13T22:30:04.124Z,83.52
2022-12-13T22:32:32.037Z,83.03
2022-12-13T22:34:58.951Z,83.41
2022-12-13T22:37:26.395Z,84.25
2022-12-13T22:39:53.606Z,83.79
2022-12-13T22:42:20.581Z,83.13
2022-12-13T22:44:47.536Z,83.18
2022-12-13T22:47:15.289Z,83.34
2022-12-13T22:49:41.874Z,83.72
2022-12-13T22:52:08.713Z,83.83
2022-12-13T22:54:35.705Z,84.33
2022-12-13T22:57:02.083Z,84.12
2022-12-13T22:59:28.482Z,83.89
2022-12-13T23:02:01.963Z,83.35
2022-12-13T23:04:32.069Z,84.23
2022-12-13T23:06:58.574Z,83.68
2022-12-13T23:09:24.957Z,83.84
2022-12-13T23:12:10.128Z,83.72
2022-12-13T23:14:36.512Z,83.72
2022-12-13T23:17:03.718Z,83.97
2022-12-13T23:19:51.048Z,83.05
2022-12-13T23:22:17.206Z,82.87
2022-12-13T23:24:43.675Z,82.96
2022-12-13T23:27:10.167Z,83.46
2022-12-13T23:29:36.774Z,83.50
2022-12-13T23:32:03.954Z,83.96
2022-12-13T23:34:30.731Z,85.06
2022-12-13T23:36:57.409Z,84.51
2022-12-13T23:39:24.108Z,84.75
2022-12-13T23:41:50.501Z,85.29
2022-12-13T23:44:16.916Z,85.21
2022-12-13T23:46:48.602Z,84.71
2022-12-13T23:49:15.769Z,84.32
2022-12-13T23:51:42.252Z,83.73
2022-12-13T23:54:11.679Z,83.46
2022-12-13T23:56:38.117Z,83.34
2022-12-13T23:59:04.542Z,83.85
